Pennington, Virginia
Current Conditions -  °F | °C
As of 4:35 AM on Monday 24 Nov 2014 (Local Time) from K0VG Reporting Station
Overcast Overcast  
Wind Chill: 61°   Ceiling: 3500
Heat Index: 61°   Visibility: 10mi
Dew Point: 54°   Wind: 18mph
Humidity: 77%   Direction: 220°SW
Pressure: 29.63"   Gusts: 22mph
Location:  36.7557°N, 83.038°W
Report Text: K0VG 240935Z AUTO 22016G19KT 10SM BKN035 OVC044 16/12 A2963 RMK AO2
Loading
Personal Weather Stations






























Interactive Weather Map New forecast layout! Learn more

10-Day Weather Forecast

Advertisements
Track Severe Weather on mobile